sensor_id;sensor_type;location;lat;lon;timestamp;P1;P2;P0
45990;PMS5003;31721;41.740;-88.000;2024-02-26T00:02:02;13;13;
45990;PMS5003;31721;41.740;-88.000;2024-02-26T00:04:30;13;12;
45990;PMS5003;31721;41.740;-88.000;2024-02-26T00:06:58;9;9;
45990;PMS5003;31721;41.740;-88.000;2024-02-26T00:09:26;14;10;
45990;PMS5003;31721;41.740;-88.000;2024-02-26T00:11:54;14;12;
45990;PMS5003;31721;41.740;-88.000;2024-02-26T00:14:23;13;9;
45990;PMS5003;31721;41.740;-88.000;2024-02-26T00:16:50;13;12;
45990;PMS5003;31721;41.740;-88.000;2024-02-26T00:19:18;12;12;
45990;PMS5003;31721;41.740;-88.000;2024-02-26T00:21:46;9;8;
45990;PMS5003;31721;41.740;-88.000;2024-02-26T00:24:14;8;8;
45990;PMS5003;31721;41.740;-88.000;2024-02-26T00:26:42;12;11;
45990;PMS5003;31721;41.740;-88.000;2024-02-26T00:29:10;12;12;
45990;PMS5003;31721;41.740;-88.000;2024-02-26T00:31:37;12;12;
45990;PMS5003;31721;41.740;-88.000;2024-02-26T00:34:06;15;13;
45990;PMS5003;31721;41.740;-88.000;2024-02-26T00:36:33;12;11;
45990;PMS5003;31721;41.740;-88.000;2024-02-26T00:39:01;18;18;
45990;PMS5003;31721;41.740;-88.000;2024-02-26T00:41:29;16;13;
45990;PMS5003;31721;41.740;-88.000;2024-02-26T00:43:57;12;12;
45990;PMS5003;31721;41.740;-88.000;2024-02-26T00:46:25;14;14;
45990;PMS5003;31721;41.740;-88.000;2024-02-26T00:48:53;14;13;
45990;PMS5003;31721;41.740;-88.000;2024-02-26T00:51:21;20;19;
45990;PMS5003;31721;41.740;-88.000;2024-02-26T00:53:50;21;15;
45990;PMS5003;31721;41.740;-88.000;2024-02-26T00:56:18;10;10;
45990;PMS5003;31721;41.740;-88.000;2024-02-26T00:58:46;11;10;
45990;PMS5003;31721;41.740;-88.000;2024-02-26T01:01:14;16;11;
45990;PMS5003;31721;41.740;-88.000;2024-02-26T01:03:42;10;10;
45990;PMS5003;31721;41.740;-88.000;2024-02-26T01:06:10;12;12;
45990;PMS5003;31721;41.740;-88.000;2024-02-26T01:08:38;17;15;
45990;PMS5003;31721;41.740;-88.000;2024-02-26T01:11:06;14;14;
45990;PMS5003;31721;41.740;-88.000;2024-02-26T01:13:33;18;12;
45990;PMS5003;31721;41.740;-88.000;2024-02-26T01:16:01;13;11;
45990;PMS5003;31721;41.740;-88.000;2024-02-26T01:18:29;18;12;
45990;PMS5003;31721;41.740;-88.000;2024-02-26T01:20:56;14;12;
45990;PMS5003;31721;41.740;-88.000;2024-02-26T01:23:24;15;15;
45990;PMS5003;31721;41.740;-88.000;2024-02-26T01:25:52;15;12;
45990;PMS5003;31721;41.740;-88.000;2024-02-26T01:28:20;17;13;
45990;PMS5003;31721;41.740;-88.000;2024-02-26T01:30:48;16;15;
45990;PMS5003;31721;41.740;-88.000;2024-02-26T01:33:16;16;11;
45990;PMS5003;31721;41.740;-88.000;2024-02-26T01:35:44;13;12;
45990;PMS5003;31721;41.740;-88.000;2024-02-26T01:38:12;15;15;
45990;PMS5003;31721;41.740;-88.000;2024-02-26T01:40:40;12;10;
45990;PMS5003;31721;41.740;-88.000;2024-02-26T01:43:08;12;12;
45990;PMS5003;31721;41.740;-88.000;2024-02-26T01:45:36;11;11;
45990;PMS5003;31721;41.740;-88.000;2024-02-26T01:48:04;12;12;
45990;PMS5003;31721;41.740;-88.000;2024-02-26T01:50:33;18;11;
45990;PMS5003;31721;41.740;-88.000;2024-02-26T01:53:01;12;12;
45990;PMS5003;31721;41.740;-88.000;2024-02-26T01:55:29;18;18;
45990;PMS5003;31721;41.740;-88.000;2024-02-26T01:57:58;12;11;
45990;PMS5003;31721;41.740;-88.000;2024-02-26T02:00:26;12;10;
45990;PMS5003;31721;41.740;-88.000;2024-02-26T02:02:54;9;9;
45990;PMS5003;31721;41.740;-88.000;2024-02-26T02:05:22;14;12;
45990;PMS5003;31721;41.740;-88.000;2024-02-26T02:07:51;22;20;
45990;PMS5003;31721;41.740;-88.000;2024-02-26T02:10:18;11;11;
45990;PMS5003;31721;41.740;-88.000;2024-02-26T02:12:47;13;13;
45990;PMS5003;31721;41.740;-88.000;2024-02-26T02:15:15;11;10;
45990;PMS5003;31721;41.740;-88.000;2024-02-26T02:17:43;13;11;
45990;PMS5003;31721;41.740;-88.000;2024-02-26T02:20:15;23;20;
45990;PMS5003;31721;41.740;-88.000;2024-02-26T02:22:44;16;15;
45990;PMS5003;31721;41.740;-88.000;2024-02-26T02:25:13;16;14;
45990;PMS5003;31721;41.740;-88.000;2024-02-26T02:27:41;16;14;
45990;PMS5003;31721;41.740;-88.000;2024-02-26T02:30:10;16;15;
45990;PMS5003;31721;41.740;-88.000;2024-02-26T02:32:39;15;14;
45990;PMS5003;31721;41.740;-88.000;2024-02-26T02:35:07;14;14;
45990;PMS5003;31721;41.740;-88.000;2024-02-26T02:37:35;18;15;
45990;PMS5003;31721;41.740;-88.000;2024-02-26T02:40:03;16;14;
45990;PMS5003;31721;41.740;-88.000;2024-02-26T02:42:31;15;13;
45990;PMS5003;31721;41.740;-88.000;2024-02-26T02:44:59;16;13;
45990;PMS5003;31721;41.740;-88.000;2024-02-26T02:47:27;16;16;
45990;PMS5003;31721;41.740;-88.000;2024-02-26T02:49:55;22;20;
45990;PMS5003;31721;41.740;-88.000;2024-02-26T02:52:23;20;16;
45990;PMS5003;31721;41.740;-88.000;2024-02-26T02:54:51;15;15;
45990;PMS5003;31721;41.740;-88.000;2024-02-26T02:57:18;16;16;
45990;PMS5003;31721;41.740;-88.000;2024-02-26T02:59:47;17;14;
45990;PMS5003;31721;41.740;-88.000;2024-02-26T03:02:15;16;13;
45990;PMS5003;31721;41.740;-88.000;2024-02-26T03:04:43;17;15;
45990;PMS5003;31721;41.740;-88.000;2024-02-26T03:07:11;22;19;
45990;PMS5003;31721;41.740;-88.000;2024-02-26T03:09:39;16;16;
45990;PMS5003;31721;41.740;-88.000;2024-02-26T03:12:07;15;14;
45990;PMS5003;31721;41.740;-88.000;2024-02-26T03:14:35;16;13;
45990;PMS5003;31721;41.740;-88.000;2024-02-26T03:17:03;18;14;
45990;PMS5003;31721;41.740;-88.000;2024-02-26T03:19:31;19;16;
45990;PMS5003;31721;41.740;-88.000;2024-02-26T03:21:59;16;14;
45990;PMS5003;31721;41.740;-88.000;2024-02-26T03:24:26;19;14;
45990;PMS5003;31721;41.740;-88.000;2024-02-26T03:26:54;17;12;
45990;PMS5003;31721;41.740;-88.000;2024-02-26T03:29:23;20;18;
45990;PMS5003;31721;41.740;-88.000;2024-02-26T03:31:50;18;14;
45990;PMS5003;31721;41.740;-88.000;2024-02-26T03:34:19;20;18;
45990;PMS5003;31721;41.740;-88.000;2024-02-26T03:36:46;14;14;
45990;PMS5003;31721;41.740;-88.000;2024-02-26T03:39:14;19;16;
45990;PMS5003;31721;41.740;-88.000;2024-02-26T03:41:42;14;14;
45990;PMS5003;31721;41.740;-88.000;2024-02-26T03:44:09;15;14;
45990;PMS5003;31721;41.740;-88.000;2024-02-26T03:46:37;21;17;
45990;PMS5003;31721;41.740;-88.000;2024-02-26T03:49:05;17;13;
45990;PMS5003;31721;41.740;-88.000;2024-02-26T03:51:33;17;13;
45990;PMS5003;31721;41.740;-88.000;2024-02-26T03:54:00;13;12;
45990;PMS5003;31721;41.740;-88.000;2024-02-26T03:56:28;14;13;
45990;PMS5003;31721;41.740;-88.000;2024-02-26T03:58:56;18;15;
45990;PMS5003;31721;41.740;-88.000;2024-02-26T04:01:24;16;13;
45990;PMS5003;31721;41.740;-88.000;2024-02-26T04:03:53;22;18;
45990;PMS5003;31721;41.740;-88.000;2024-02-26T04:06:21;23;20;
45990;PMS5003;31721;41.740;-88.000;2024-02-26T04:08:50;17;14;
45990;PMS5003;31721;41.740;-88.000;2024-02-26T04:11:17;15;14;
45990;PMS5003;31721;41.740;-88.000;2024-02-26T04:13:45;24;19;
45990;PMS5003;31721;41.740;-88.000;2024-02-26T04:16:13;19;18;
45990;PMS5003;31721;41.740;-88.000;2024-02-26T04:18:41;19;15;
45990;PMS5003;31721;41.740;-88.000;2024-02-26T04:21:09;24;22;
45990;PMS5003;31721;41.740;-88.000;2024-02-26T04:23:37;17;14;
45990;PMS5003;31721;41.740;-88.000;2024-02-26T04:26:05;17;14;
45990;PMS5003;31721;41.740;-88.000;2024-02-26T04:28:32;19;14;
45990;PMS5003;31721;41.740;-88.000;2024-02-26T04:31:00;19;17;
45990;PMS5003;31721;41.740;-88.000;2024-02-26T04:33:29;20;17;
45990;PMS5003;31721;41.740;-88.000;2024-02-26T04:35:56;25;23;
45990;PMS5003;31721;41.740;-88.000;2024-02-26T04:38:24;20;20;
45990;PMS5003;31721;41.740;-88.000;2024-02-26T04:40:53;17;17;
45990;PMS5003;31721;41.740;-88.000;2024-02-26T04:43:20;19;15;
45990;PMS5003;31721;41.740;-88.000;2024-02-26T04:45:48;19;17;
45990;PMS5003;31721;41.740;-88.000;2024-02-26T04:48:16;14;13;
45990;PMS5003;31721;41.740;-88.000;2024-02-26T04:50:43;19;14;
45990;PMS5003;31721;41.740;-88.000;2024-02-26T04:53:11;21;18;
45990;PMS5003;31721;41.740;-88.000;2024-02-26T04:55:38;20;15;
45990;PMS5003;31721;41.740;-88.000;2024-02-26T04:58:06;23;19;
45990;PMS5003;31721;41.740;-88.000;2024-02-26T05:00:34;18;18;
45990;PMS5003;31721;41.740;-88.000;2024-02-26T05:03:02;20;17;
45990;PMS5003;31721;41.740;-88.000;2024-02-26T05:05:29;23;20;
45990;PMS5003;31721;41.740;-88.000;2024-02-26T05:07:57;21;15;
45990;PMS5003;31721;41.740;-88.000;2024-02-26T05:10:25;20;17;
45990;PMS5003;31721;41.740;-88.000;2024-02-26T05:12:53;19;19;
45990;PMS5003;31721;41.740;-88.000;2024-02-26T05:15:21;21;20;
45990;PMS5003;31721;41.740;-88.000;2024-02-26T05:17:48;23;21;
45990;PMS5003;31721;41.740;-88.000;2024-02-26T05:20:16;25;22;
45990;PMS5003;31721;41.740;-88.000;2024-02-26T05:22:44;17;17;
45990;PMS5003;31721;41.740;-88.000;2024-02-26T05:25:11;19;17;
45990;PMS5003;31721;41.740;-88.000;2024-02-26T05:27:41;20;18;
45990;PMS5003;31721;41.740;-88.000;2024-02-26T05:30:10;17;15;
45990;PMS5003;31721;41.740;-88.000;2024-02-26T05:32:38;28;24;
45990;PMS5003;31721;41.740;-88.000;2024-02-26T05:35:06;22;18;
45990;PMS5003;31721;41.740;-88.000;2024-02-26T05:37:34;23;19;
45990;PMS5003;31721;41.740;-88.000;2024-02-26T05:40:02;22;18;
45990;PMS5003;31721;41.740;-88.000;2024-02-26T05:42:31;29;28;
45990;PMS5003;31721;41.740;-88.000;2024-02-26T05:44:59;22;17;
45990;PMS5003;31721;41.740;-88.000;2024-02-26T05:47:26;20;18;
45990;PMS5003;31721;41.740;-88.000;2024-02-26T05:49:54;17;14;
45990;PMS5003;31721;41.740;-88.000;2024-02-26T05:52:22;24;19;
45990;PMS5003;31721;41.740;-88.000;2024-02-26T05:54:50;25;20;
45990;PMS5003;31721;41.740;-88.000;2024-02-26T05:57:17;19;17;
45990;PMS5003;31721;41.740;-88.000;2024-02-26T05:59:45;32;29;
45990;PMS5003;31721;41.740;-88.000;2024-02-26T06:02:13;22;17;
45990;PMS5003;31721;41.740;-88.000;2024-02-26T06:04:41;25;20;
45990;PMS5003;31721;41.740;-88.000;2024-02-26T06:07:08;18;17;
45990;PMS5003;31721;41.740;-88.000;2024-02-26T06:09:36;24;23;
45990;PMS5003;31721;41.740;-88.000;2024-02-26T06:12:04;19;18;
45990;PMS5003;31721;41.740;-88.000;2024-02-26T06:14:32;24;21;
45990;PMS5003;31721;41.740;-88.000;2024-02-26T06:17:00;23;19;
45990;PMS5003;31721;41.740;-88.000;2024-02-26T06:19:28;22;18;
45990;PMS5003;31721;41.740;-88.000;2024-02-26T06:21:56;30;23;
45990;PMS5003;31721;41.740;-88.000;2024-02-26T06:24:24;25;24;
45990;PMS5003;31721;41.740;-88.000;2024-02-26T06:26:52;24;22;
45990;PMS5003;31721;41.740;-88.000;2024-02-26T06:29:20;24;24;
45990;PMS5003;31721;41.740;-88.000;2024-02-26T06:31:48;25;22;
45990;PMS5003;31721;41.740;-88.000;2024-02-26T06:34:15;22;21;
45990;PMS5003;31721;41.740;-88.000;2024-02-26T06:36:43;24;24;
45990;PMS5003;31721;41.740;-88.000;2024-02-26T06:39:10;29;25;
45990;PMS5003;31721;41.740;-88.000;2024-02-26T06:41:38;27;23;
45990;PMS5003;31721;41.740;-88.000;2024-02-26T06:44:05;29;22;
45990;PMS5003;31721;41.740;-88.000;2024-02-26T06:46:33;21;19;
45990;PMS5003;31721;41.740;-88.000;2024-02-26T06:49:01;21;19;
45990;PMS5003;31721;41.740;-88.000;2024-02-26T06:51:29;27;22;
45990;PMS5003;31721;41.740;-88.000;2024-02-26T06:53:56;27;24;
45990;PMS5003;31721;41.740;-88.000;2024-02-26T06:56:24;24;24;
45990;PMS5003;31721;41.740;-88.000;2024-02-26T06:58:52;25;21;
45990;PMS5003;31721;41.740;-88.000;2024-02-26T07:01:20;19;17;
45990;PMS5003;31721;41.740;-88.000;2024-02-26T07:03:47;28;26;
45990;PMS5003;31721;41.740;-88.000;2024-02-26T07:06:15;21;18;
45990;PMS5003;31721;41.740;-88.000;2024-02-26T07:08:42;26;26;
45990;PMS5003;31721;41.740;-88.000;2024-02-26T07:11:10;30;27;
45990;PMS5003;31721;41.740;-88.000;2024-02-26T07:13:37;18;17;
45990;PMS5003;31721;41.740;-88.000;2024-02-26T07:16:07;16;16;
45990;PMS5003;31721;41.740;-88.000;2024-02-26T07:18:36;20;18;
45990;PMS5003;31721;41.740;-88.000;2024-02-26T07:21:04;28;25;
45990;PMS5003;31721;41.740;-88.000;2024-02-26T07:23:31;27;25;
45990;PMS5003;31721;41.740;-88.000;2024-02-26T07:25:59;30;25;
45990;PMS5003;31721;41.740;-88.000;2024-02-26T07:28:27;31;31;
45990;PMS5003;31721;41.740;-88.000;2024-02-26T07:30:55;23;22;
45990;PMS5003;31721;41.740;-88.000;2024-02-26T07:33:23;22;21;
45990;PMS5003;31721;41.740;-88.000;2024-02-26T07:35:50;23;21;
45990;PMS5003;31721;41.740;-88.000;2024-02-26T07:38:18;28;23;
45990;PMS5003;31721;41.740;-88.000;2024-02-26T07:40:51;18;18;
45990;PMS5003;31721;41.740;-88.000;2024-02-26T07:43:18;22;20;
45990;PMS5003;31721;41.740;-88.000;2024-02-26T07:45:46;30;26;
45990;PMS5003;31721;41.740;-88.000;2024-02-26T07:48:14;23;21;
45990;PMS5003;31721;41.740;-88.000;2024-02-26T07:50:42;27;22;
45990;PMS5003;31721;41.740;-88.000;2024-02-26T07:53:10;16;16;
45990;PMS5003;31721;41.740;-88.000;2024-02-26T07:55:38;21;20;
45990;PMS5003;31721;41.740;-88.000;2024-02-26T07:58:05;28;26;
45990;PMS5003;31721;41.740;-88.000;2024-02-26T08:00:33;33;27;
45990;PMS5003;31721;41.740;-88.000;2024-02-26T08:03:00;27;24;
45990;PMS5003;31721;41.740;-88.000;2024-02-26T08:05:29;30;28;
45990;PMS5003;31721;41.740;-88.000;2024-02-26T08:07:57;22;18;
45990;PMS5003;31721;41.740;-88.000;2024-02-26T08:10:25;27;23;
45990;PMS5003;31721;41.740;-88.000;2024-02-26T08:12:53;24;20;
45990;PMS5003;31721;41.740;-88.000;2024-02-26T08:15:21;21;20;
45990;PMS5003;31721;41.740;-88.000;2024-02-26T08:17:49;23;20;
45990;PMS5003;31721;41.740;-88.000;2024-02-26T08:20:17;19;18;
45990;PMS5003;31721;41.740;-88.000;2024-02-26T08:22:44;32;28;
45990;PMS5003;31721;41.740;-88.000;2024-02-26T08:25:12;23;20;
45990;PMS5003;31721;41.740;-88.000;2024-02-26T08:27:40;25;20;
45990;PMS5003;31721;41.740;-88.000;2024-02-26T08:30:08;27;20;
45990;PMS5003;31721;41.740;-88.000;2024-02-26T08:32:37;28;25;
45990;PMS5003;31721;41.740;-88.000;2024-02-26T08:35:05;23;15;
45990;PMS5003;31721;41.740;-88.000;2024-02-26T08:37:33;20;19;
45990;PMS5003;31721;41.740;-88.000;2024-02-26T08:40:00;25;22;
45990;PMS5003;31721;41.740;-88.000;2024-02-26T08:42:28;19;18;
45990;PMS5003;31721;41.740;-88.000;2024-02-26T08:44:56;22;20;
45990;PMS5003;31721;41.740;-88.000;2024-02-26T08:47:23;23;20;
45990;PMS5003;31721;41.740;-88.000;2024-02-26T08:49:51;22;20;
45990;PMS5003;31721;41.740;-88.000;2024-02-26T08:52:18;23;16;
45990;PMS5003;31721;41.740;-88.000;2024-02-26T08:54:46;24;23;
45990;PMS5003;31721;41.740;-88.000;2024-02-26T08:57:13;19;19;
45990;PMS5003;31721;41.740;-88.000;2024-02-26T08:59:41;28;23;
45990;PMS5003;31721;41.740;-88.000;2024-02-26T09:02:09;16;16;
45990;PMS5003;31721;41.740;-88.000;2024-02-26T09:04:37;19;19;
45990;PMS5003;31721;41.740;-88.000;2024-02-26T09:07:05;22;18;
45990;PMS5003;31721;41.740;-88.000;2024-02-26T09:09:32;16;16;
45990;PMS5003;31721;41.740;-88.000;2024-02-26T09:12:00;18;15;
45990;PMS5003;31721;41.740;-88.000;2024-02-26T09:14:28;14;13;
45990;PMS5003;31721;41.740;-88.000;2024-02-26T09:16:56;13;11;
45990;PMS5003;31721;41.740;-88.000;2024-02-26T09:19:24;9;9;
45990;PMS5003;31721;41.740;-88.000;2024-02-26T09:21:52;15;13;
45990;PMS5003;31721;41.740;-88.000;2024-02-26T09:24:20;9;9;
45990;PMS5003;31721;41.740;-88.000;2024-02-26T09:26:47;15;9;
45990;PMS5003;31721;41.740;-88.000;2024-02-26T09:29:15;10;9;
45990;PMS5003;31721;41.740;-88.000;2024-02-26T09:31:44;10;10;
45990;PMS5003;31721;41.740;-88.000;2024-02-26T09:34:11;10;10;
45990;PMS5003;31721;41.740;-88.000;2024-02-26T09:36:38;7;7;
45990;PMS5003;31721;41.740;-88.000;2024-02-26T09:39:06;9;7;
45990;PMS5003;31721;41.740;-88.000;2024-02-26T09:41:33;6;6;
45990;PMS5003;31721;41.740;-88.000;2024-02-26T09:44:01;10;7;
45990;PMS5003;31721;41.740;-88.000;2024-02-26T09:46:31;10;9;
45990;PMS5003;31721;41.740;-88.000;2024-02-26T09:48:59;10;7;
45990;PMS5003;31721;41.740;-88.000;2024-02-26T09:51:27;6;6;
45990;PMS5003;31721;41.740;-88.000;2024-02-26T09:53:55;7;7;
45990;PMS5003;31721;41.740;-88.000;2024-02-26T09:56:26;12;12;
45990;PMS5003;31721;41.740;-88.000;2024-02-26T09:58:54;7;5;
45990;PMS5003;31721;41.740;-88.000;2024-02-26T10:01:24;7;5;
45990;PMS5003;31721;41.740;-88.000;2024-02-26T10:03:53;5;5;
45990;PMS5003;31721;41.740;-88.000;2024-02-26T10:06:24;6;5;
45990;PMS5003;31721;41.740;-88.000;2024-02-26T10:08:53;6;6;
45990;PMS5003;31721;41.740;-88.000;2024-02-26T10:11:22;6;6;
45990;PMS5003;31721;41.740;-88.000;2024-02-26T10:13:50;5;3;
45990;PMS5003;31721;41.740;-88.000;2024-02-26T10:16:17;6;6;
45990;PMS5003;31721;41.740;-88.000;2024-02-26T10:18:46;10;3;
45990;PMS5003;31721;41.740;-88.000;2024-02-26T10:21:15;5;5;
45990;PMS5003;31721;41.740;-88.000;2024-02-26T10:23:43;5;5;
45990;PMS5003;31721;41.740;-88.000;2024-02-26T10:26:11;5;5;
45990;PMS5003;31721;41.740;-88.000;2024-02-26T10:28:40;7;7;
45990;PMS5003;31721;41.740;-88.000;2024-02-26T10:31:10;5;3;
45990;PMS5003;31721;41.740;-88.000;2024-02-26T10:33:45;11;7;
45990;PMS5003;31721;41.740;-88.000;2024-02-26T10:36:12;3;3;
45990;PMS5003;31721;41.740;-88.000;2024-02-26T10:38:41;10;5;
45990;PMS5003;31721;41.740;-88.000;2024-02-26T10:41:12;7;3;
45990;PMS5003;31721;41.740;-88.000;2024-02-26T10:43:41;3;3;
45990;PMS5003;31721;41.740;-88.000;2024-02-26T10:46:09;6;3;
45990;PMS5003;31721;41.740;-88.000;2024-02-26T10:48:37;6;6;
45990;PMS5003;31721;41.740;-88.000;2024-02-26T10:51:05;6;5;
45990;PMS5003;31721;41.740;-88.000;2024-02-26T10:53:36;5;5;
45990;PMS5003;31721;41.740;-88.000;2024-02-26T10:56:05;7;3;
45990;PMS5003;31721;41.740;-88.000;2024-02-26T10:58:33;7;5;
45990;PMS5003;31721;41.740;-88.000;2024-02-26T11:01:02;8;5;
45990;PMS5003;31721;41.740;-88.000;2024-02-26T11:03:31;5;5;
45990;PMS5003;31721;41.740;-88.000;2024-02-26T11:06:00;6;6;
45990;PMS5003;31721;41.740;-88.000;2024-02-26T11:08:30;3;3;
45990;PMS5003;31721;41.740;-88.000;2024-02-26T11:10:58;7;5;
45990;PMS5003;31721;41.740;-88.000;2024-02-26T11:13:27;3;3;
45990;PMS5003;31721;41.740;-88.000;2024-02-26T11:15:57;5;5;
45990;PMS5003;31721;41.740;-88.000;2024-02-26T11:18:26;5;2;
45990;PMS5003;31721;41.740;-88.000;2024-02-26T11:20:55;10;6;
45990;PMS5003;31721;41.740;-88.000;2024-02-26T11:23:25;7;7;
45990;PMS5003;31721;41.740;-88.000;2024-02-26T11:25:54;6;6;
45990;PMS5003;31721;41.740;-88.000;2024-02-26T11:28:24;3;3;
45990;PMS5003;31721;41.740;-88.000;2024-02-26T11:30:54;7;5;
45990;PMS5003;31721;41.740;-88.000;2024-02-26T11:33:23;6;6;
45990;PMS5003;31721;41.740;-88.000;2024-02-26T11:35:52;6;5;
45990;PMS5003;31721;41.740;-88.000;2024-02-26T11:38:21;3;3;
45990;PMS5003;31721;41.740;-88.000;2024-02-26T11:40:51;6;5;
45990;PMS5003;31721;41.740;-88.000;2024-02-26T11:43:23;8;5;
45990;PMS5003;31721;41.740;-88.000;2024-02-26T11:46:24;3;3;
45990;PMS5003;31721;41.740;-88.000;2024-02-26T11:48:54;5;5;
45990;PMS5003;31721;41.740;-88.000;2024-02-26T11:51:25;11;11;
45990;PMS5003;31721;41.740;-88.000;2024-02-26T11:53:53;5;3;
45990;PMS5003;31721;41.740;-88.000;2024-02-26T11:56:22;6;5;
45990;PMS5003;31721;41.740;-88.000;2024-02-26T11:58:57;3;2;
45990;PMS5003;31721;41.740;-88.000;2024-02-26T12:01:42;3;3;
45990;PMS5003;31721;41.740;-88.000;2024-02-26T12:04:12;6;6;
45990;PMS5003;31721;41.740;-88.000;2024-02-26T12:06:43;3;3;
45990;PMS5003;31721;41.740;-88.000;2024-02-26T12:09:17;2;2;
45990;PMS5003;31721;41.740;-88.000;2024-02-26T12:11:57;5;5;
45990;PMS5003;31721;41.740;-88.000;2024-02-26T12:14:27;5;5;
45990;PMS5003;31721;41.740;-88.000;2024-02-26T12:16:55;6;5;
45990;PMS5003;31721;41.740;-88.000;2024-02-26T12:19:23;5;5;
45990;PMS5003;31721;41.740;-88.000;2024-02-26T12:21:52;9;9;
45990;PMS5003;31721;41.740;-88.000;2024-02-26T12:24:20;5;5;
45990;PMS5003;31721;41.740;-88.000;2024-02-26T12:26:48;3;3;
45990;PMS5003;31721;41.740;-88.000;2024-02-26T12:29:15;5;3;
45990;PMS5003;31721;41.740;-88.000;2024-02-26T12:31:44;9;7;
45990;PMS5003;31721;41.740;-88.000;2024-02-26T12:34:11;7;5;
45990;PMS5003;31721;41.740;-88.000;2024-02-26T12:36:40;9;5;
45990;PMS5003;31721;41.740;-88.000;2024-02-26T12:39:08;3;2;
45990;PMS5003;31721;41.740;-88.000;2024-02-26T12:41:37;3;3;
45990;PMS5003;31721;41.740;-88.000;2024-02-26T12:44:05;6;5;
45990;PMS5003;31721;41.740;-88.000;2024-02-26T12:46:34;5;2;
45990;PMS5003;31721;41.740;-88.000;2024-02-26T12:49:02;5;5;
45990;PMS5003;31721;41.740;-88.000;2024-02-26T12:51:29;2;2;
45990;PMS5003;31721;41.740;-88.000;2024-02-26T12:53:56;2;2;
45990;PMS5003;31721;41.740;-88.000;2024-02-26T12:56:24;6;3;
45990;PMS5003;31721;41.740;-88.000;2024-02-26T12:58:54;5;3;
45990;PMS5003;31721;41.740;-88.000;2024-02-26T13:01:23;5;5;
45990;PMS5003;31721;41.740;-88.000;2024-02-26T13:03:51;6;6;
45990;PMS5003;31721;41.740;-88.000;2024-02-26T13:06:19;3;3;
45990;PMS5003;31721;41.740;-88.000;2024-02-26T13:08:48;6;6;
45990;PMS5003;31721;41.740;-88.000;2024-02-26T13:11:16;7;6;
45990;PMS5003;31721;41.740;-88.000;2024-02-26T13:13:47;10;9;
45990;PMS5003;31721;41.740;-88.000;2024-02-26T13:16:15;6;5;
45990;PMS5003;31721;41.740;-88.000;2024-02-26T13:18:43;6;5;
45990;PMS5003;31721;41.740;-88.000;2024-02-26T13:21:11;6;6;
45990;PMS5003;31721;41.740;-88.000;2024-02-26T13:23:40;8;7;
45990;PMS5003;31721;41.740;-88.000;2024-02-26T13:26:11;3;3;
45990;PMS5003;31721;41.740;-88.000;2024-02-26T13:28:39;6;6;
45990;PMS5003;31721;41.740;-88.000;2024-02-26T13:31:07;10;7;
45990;PMS5003;31721;41.740;-88.000;2024-02-26T13:33:35;7;7;
45990;PMS5003;31721;41.740;-88.000;2024-02-26T13:36:03;8;8;
45990;PMS5003;31721;41.740;-88.000;2024-02-26T13:38:31;15;8;
45990;PMS5003;31721;41.740;-88.000;2024-02-26T13:40:58;10;8;
45990;PMS5003;31721;41.740;-88.000;2024-02-26T13:43:27;8;8;
45990;PMS5003;31721;41.740;-88.000;2024-02-26T13:45:54;11;7;
45990;PMS5003;31721;41.740;-88.000;2024-02-26T13:48:21;8;7;
45990;PMS5003;31721;41.740;-88.000;2024-02-26T13:50:50;10;10;
45990;PMS5003;31721;41.740;-88.000;2024-02-26T13:53:18;8;7;
45990;PMS5003;31721;41.740;-88.000;2024-02-26T13:55:45;11;8;
45990;PMS5003;31721;41.740;-88.000;2024-02-26T13:58:12;12;8;
45990;PMS5003;31721;41.740;-88.000;2024-02-26T14:00:41;16;16;
45990;PMS5003;31721;41.740;-88.000;2024-02-26T14:03:09;8;8;
45990;PMS5003;31721;41.740;-88.000;2024-02-26T14:05:37;9;7;
45990;PMS5003;31721;41.740;-88.000;2024-02-26T14:08:05;12;11;
45990;PMS5003;31721;41.740;-88.000;2024-02-26T14:10:33;13;12;
45990;PMS5003;31721;41.740;-88.000;2024-02-26T14:13:01;9;8;
45990;PMS5003;31721;41.740;-88.000;2024-02-26T14:15:29;11;11;
45990;PMS5003;31721;41.740;-88.000;2024-02-26T14:17:56;9;8;
45990;PMS5003;31721;41.740;-88.000;2024-02-26T14:20:25;7;6;
45990;PMS5003;31721;41.740;-88.000;2024-02-26T14:22:53;11;11;
45990;PMS5003;31721;41.740;-88.000;2024-02-26T14:25:21;10;9;
45990;PMS5003;31721;41.740;-88.000;2024-02-26T14:27:49;17;10;
45990;PMS5003;31721;41.740;-88.000;2024-02-26T14:30:17;7;7;
45990;PMS5003;31721;41.740;-88.000;2024-02-26T14:32:45;12;10;
45990;PMS5003;31721;41.740;-88.000;2024-02-26T14:35:13;9;8;
45990;PMS5003;31721;41.740;-88.000;2024-02-26T14:37:41;10;10;
45990;PMS5003;31721;41.740;-88.000;2024-02-26T14:40:10;7;7;
45990;PMS5003;31721;41.740;-88.000;2024-02-26T14:42:39;8;7;
45990;PMS5003;31721;41.740;-88.000;2024-02-26T14:45:07;7;7;
45990;PMS5003;31721;41.740;-88.000;2024-02-26T14:47:36;8;7;
45990;PMS5003;31721;41.740;-88.000;2024-02-26T14:50:04;11;7;
45990;PMS5003;31721;41.740;-88.000;2024-02-26T14:52:32;10;9;
45990;PMS5003;31721;41.740;-88.000;2024-02-26T14:55:00;11;9;
45990;PMS5003;31721;41.740;-88.000;2024-02-26T14:57:28;13;11;
45990;PMS5003;31721;41.740;-88.000;2024-02-26T14:59:56;10;9;
45990;PMS5003;31721;41.740;-88.000;2024-02-26T15:02:23;11;8;
45990;PMS5003;31721;41.740;-88.000;2024-02-26T15:04:51;11;10;
45990;PMS5003;31721;41.740;-88.000;2024-02-26T15:07:19;14;11;
45990;PMS5003;31721;41.740;-88.000;2024-02-26T15:09:47;10;9;
45990;PMS5003;31721;41.740;-88.000;2024-02-26T15:12:14;11;11;
45990;PMS5003;31721;41.740;-88.000;2024-02-26T15:14:43;11;11;
45990;PMS5003;31721;41.740;-88.000;2024-02-26T15:17:11;11;9;
45990;PMS5003;31721;41.740;-88.000;2024-02-26T15:19:39;9;9;
45990;PMS5003;31721;41.740;-88.000;2024-02-26T15:22:07;13;12;
45990;PMS5003;31721;41.740;-88.000;2024-02-26T15:24:35;9;8;
45990;PMS5003;31721;41.740;-88.000;2024-02-26T15:27:03;12;10;
45990;PMS5003;31721;41.740;-88.000;2024-02-26T15:29:31;19;14;
45990;PMS5003;31721;41.740;-88.000;2024-02-26T15:31:59;14;13;
45990;PMS5003;31721;41.740;-88.000;2024-02-26T15:34:27;12;11;
45990;PMS5003;31721;41.740;-88.000;2024-02-26T15:36:54;12;9;
45990;PMS5003;31721;41.740;-88.000;2024-02-26T15:39:22;10;10;
45990;PMS5003;31721;41.740;-88.000;2024-02-26T15:41:51;12;12;
45990;PMS5003;31721;41.740;-88.000;2024-02-26T15:44:18;15;13;
45990;PMS5003;31721;41.740;-88.000;2024-02-26T15:46:46;13;11;
45990;PMS5003;31721;41.740;-88.000;2024-02-26T15:49:14;14;13;
45990;PMS5003;31721;41.740;-88.000;2024-02-26T15:51:43;12;12;
45990;PMS5003;31721;41.740;-88.000;2024-02-26T15:54:10;11;10;
45990;PMS5003;31721;41.740;-88.000;2024-02-26T15:56:38;14;13;
45990;PMS5003;31721;41.740;-88.000;2024-02-26T15:59:08;14;12;
45990;PMS5003;31721;41.740;-88.000;2024-02-26T16:01:36;11;10;
45990;PMS5003;31721;41.740;-88.000;2024-02-26T16:04:05;12;12;